createdAt,value
2022-11-20T00:01:23.445Z,2.78
2022-11-20T00:05:26.165Z,3.55
2022-11-20T00:09:28.898Z,3.60
2022-11-20T00:13:31.877Z,3.20
2022-11-20T00:17:35.864Z,3.80
2022-11-20T00:21:38.521Z,3.80
2022-11-20T00:25:41.154Z,3.05
2022-11-20T00:29:43.854Z,3.35
2022-11-20T00:33:48.183Z,2.80
2022-11-20T00:37:51.178Z,3.00
2022-11-20T00:41:53.826Z,2.53
2022-11-20T00:46:00.171Z,3.85
2022-11-20T00:50:04.674Z,2.63
2022-11-20T00:54:07.368Z,3.45
2022-11-20T00:58:14.115Z,4.22
2022-11-20T01:06:24.221Z,4.13
2022-11-20T01:10:26.877Z,2.42
2022-11-20T01:14:29.535Z,3.30
2022-11-20T01:18:32.237Z,4.03
2022-11-20T01:22:36.243Z,3.55
2022-11-20T01:26:41.188Z,3.50
2022-11-20T01:30:43.845Z,4.55
2022-11-20T01:34:46.898Z,3.10
2022-11-20T01:38:53.329Z,3.50
2022-11-20T01:43:23.395Z,2.75
2022-11-20T01:47:36.297Z,2.92
2022-11-20T01:51:43.854Z,3.05
2022-11-20T01:55:51.818Z,2.78
2022-11-20T01:59:58.986Z,3.55
2022-11-20T02:04:02.727Z,2.88
2022-11-20T02:08:07.743Z,3.17
2022-11-20T02:12:32.473Z,3.92
2022-11-20T02:16:39.799Z,3.28
2022-11-20T02:20:44.169Z,2.72
2022-11-20T02:24:49.741Z,1.98
2022-11-20T02:28:52.865Z,4.07
2022-11-20T02:32:55.586Z,2.67
2022-11-20T02:36:58.927Z,2.90
2022-11-20T02:41:02.937Z,3.72
2022-11-20T02:45:06.768Z,2.47
2022-11-20T02:49:09.453Z,4.35
2022-11-20T02:53:12.342Z,2.28
2022-11-20T02:57:16.483Z,3.78
2022-11-20T03:01:19.443Z,3.38
2022-11-20T03:05:22.113Z,3.35
2022-11-20T03:09:24.901Z,2.72
2022-11-20T03:13:29.022Z,2.53
2022-11-20T03:17:31.850Z,3.78
2022-11-20T03:21:35.200Z,4.05
2022-11-20T03:25:37.858Z,3.80
2022-11-20T03:29:41.831Z,4.07
2022-11-20T03:33:44.935Z,2.47
2022-11-20T03:37:47.650Z,3.47
2022-11-20T03:41:50.253Z,3.70
2022-11-20T03:45:54.295Z,2.70
2022-11-20T03:49:56.973Z,2.17
2022-11-20T03:54:01.879Z,3.15
2022-11-20T03:58:04.721Z,3.10
2022-11-20T04:02:08.793Z,5.82
2022-11-20T04:06:14.005Z,4.00
2022-11-20T04:10:16.829Z,3.95
2022-11-20T04:14:19.520Z,2.35
2022-11-20T04:18:23.517Z,4.13
2022-11-20T04:22:26.228Z,3.55
2022-11-20T04:26:30.376Z,3.13
2022-11-20T04:30:33.194Z,3.25
2022-11-20T04:34:37.533Z,3.67
2022-11-20T04:38:40.898Z,2.83
2022-11-20T04:42:43.545Z,2.90
2022-11-20T04:46:46.171Z,3.10
2022-11-20T04:50:50.342Z,3.47
2022-11-20T04:54:54.390Z,2.92
2022-11-20T04:58:57.035Z,3.03
2022-11-20T05:02:59.736Z,4.07
2022-11-20T05:07:03.871Z,3.97
2022-11-20T05:11:08.456Z,3.05
2022-11-20T05:15:11.889Z,2.70
2022-11-20T05:19:14.693Z,2.88
2022-11-20T05:23:18.677Z,3.85
2022-11-20T05:27:21.424Z,3.88
2022-11-20T05:31:28.101Z,3.15
2022-11-20T05:35:31.055Z,2.92
2022-11-20T05:39:35.029Z,3.08
2022-11-20T05:43:39.000Z,2.97
2022-11-20T05:47:41.738Z,2.83
2022-11-20T05:51:44.392Z,3.25
2022-11-20T05:55:48.359Z,1.85
2022-11-20T05:59:51.074Z,2.90
2022-11-20T06:03:54.948Z,2.33
2022-11-20T06:07:57.699Z,3.20
2022-11-20T06:12:01.922Z,1.98
2022-11-20T06:16:05.335Z,2.88
2022-11-20T06:20:09.116Z,2.53
2022-11-20T06:24:12.618Z,2.75
2022-11-20T06:28:16.606Z,2.58
2022-11-20T06:32:19.253Z,2.22
2022-11-20T06:36:23.511Z,2.38
2022-11-20T06:40:26.144Z,2.45
2022-11-20T06:44:30.169Z,3.20
2022-11-20T06:48:32.896Z,3.92
2022-11-20T06:52:39.471Z,3.90
2022-11-20T06:56:48.657Z,3.75
2022-11-20T07:00:52.782Z,2.42
2022-11-20T07:04:55.477Z,3.25
2022-11-20T07:08:58.405Z,3.47
2022-11-20T07:13:01.515Z,2.58
2022-11-20T07:17:05.501Z,3.05
2022-11-20T07:21:10.069Z,1.55
2022-11-20T07:25:12.796Z,2.42
2022-11-20T07:29:15.436Z,2.35
2022-11-20T07:33:19.650Z,3.15
2022-11-20T07:37:22.755Z,2.65
2022-11-20T07:41:25.436Z,2.42
2022-11-20T07:45:28.178Z,3.33
2022-11-20T07:49:32.359Z,4.85
2022-11-20T07:53:34.973Z,4.78
2022-11-20T07:57:37.757Z,1.65
2022-11-20T08:01:40.504Z,3.33
2022-11-20T08:05:44.497Z,2.88
2022-11-20T08:09:47.588Z,4.15
2022-11-20T08:14:07.986Z,2.53
2022-11-20T08:22:37.129Z,2.92
2022-11-20T08:26:41.472Z,1.85
2022-11-20T08:30:44.156Z,4.68
2022-11-20T08:34:47.325Z,4.32
2022-11-20T08:38:52.190Z,4.45
2022-11-20T08:42:54.856Z,3.15
2022-11-20T08:46:58.049Z,2.42
2022-11-20T08:51:01.245Z,2.20
2022-11-20T08:55:06.864Z,2.60
2022-11-20T08:59:23.373Z,2.00
2022-11-20T09:03:33.097Z,1.70
2022-11-20T09:07:35.805Z,2.17
2022-11-20T09:11:39.817Z,3.08
2022-11-20T09:15:42.475Z,3.03
2022-11-20T09:19:45.258Z,3.00
2022-11-20T09:23:48.358Z,2.72
2022-11-20T09:27:57.144Z,2.58
2022-11-20T09:31:59.864Z,2.53
2022-11-20T09:36:02.488Z,2.03
2022-11-20T09:40:06.183Z,2.97
2022-11-20T09:44:27.232Z,1.50
2022-11-20T09:48:44.787Z,2.05
2022-11-20T09:52:58.899Z,2.42
2022-11-20T09:57:03.989Z,1.90
2022-11-20T10:01:14.230Z,1.27
2022-11-20T10:05:21.054Z,1.38
2022-11-20T10:13:42.283Z,1.80
2022-11-20T10:18:19.270Z,1.95
2022-11-20T10:22:35.054Z,1.27
2022-11-20T10:26:50.196Z,1.33
2022-11-20T10:30:59.918Z,2.50
2022-11-20T10:35:10.634Z,1.67
2022-11-20T10:39:21.325Z,1.60
2022-11-20T10:43:33.922Z,1.45
2022-11-20T10:47:38.327Z,2.03
2022-11-20T10:51:55.127Z,1.40
2022-11-20T10:56:02.740Z,1.55
2022-11-20T11:00:08.208Z,1.52
2022-11-20T11:04:34.726Z,0.82
2022-11-20T11:08:41.272Z,2.30
2022-11-20T11:16:52.638Z,0.88
2022-11-20T11:20:57.184Z,1.58
2022-11-20T11:25:01.601Z,1.33
2022-11-20T11:29:06.002Z,1.40
2022-11-20T11:33:13.268Z,1.67
2022-11-20T11:37:22.399Z,0.85
2022-11-20T11:41:33.042Z,1.33
2022-11-20T11:45:35.721Z,1.23
2022-11-20T11:49:38.543Z,0.85
2022-11-20T11:53:44.646Z,1.80
2022-11-20T11:57:53.893Z,1.40
2022-11-20T12:02:02.329Z,1.10
2022-11-20T12:06:12.344Z,1.67
2022-11-20T12:10:23.611Z,2.30
2022-11-20T12:14:35.624Z,1.38
2022-11-20T12:18:38.337Z,1.52
2022-11-20T12:22:51.499Z,1.60
2022-11-20T12:27:06.047Z,1.42
2022-11-20T12:31:32.768Z,1.10
2022-11-20T12:35:49.888Z,1.40
2022-11-20T12:39:55.748Z,1.80
2022-11-20T12:44:26.271Z,1.17
2022-11-20T12:48:46.443Z,1.40
2022-11-20T12:52:54.260Z,1.60
2022-11-20T12:57:04.214Z,1.90
2022-11-20T13:01:38.313Z,1.08
2022-11-20T13:05:54.827Z,1.13
2022-11-20T13:09:58.574Z,1.35
2022-11-20T13:14:26.365Z,1.50
2022-11-20T13:18:30.302Z,1.42
2022-11-20T13:22:46.604Z,1.00
2022-11-20T13:26:49.462Z,0.90
2022-11-20T13:30:53.890Z,0.70
2022-11-20T13:34:58.768Z,1.00
2022-11-20T13:39:03.019Z,0.65
2022-11-20T13:43:28.641Z,1.58
2022-11-20T13:51:44.118Z,0.90
2022-11-20T13:55:57.245Z,1.00
2022-11-20T14:00:07.670Z,1.30
2022-11-20T14:04:15.066Z,1.08
2022-11-20T14:08:27.090Z,0.93
2022-11-20T14:12:32.822Z,1.40
2022-11-20T14:16:37.720Z,2.13
2022-11-20T14:20:41.645Z,2.03
2022-11-20T14:24:44.361Z,1.98
2022-11-20T14:28:50.964Z,1.52
2022-11-20T14:37:00.699Z,0.98
2022-11-20T14:41:10.184Z,2.17
2022-11-20T14:45:15.244Z,1.67
2022-11-20T14:49:18.537Z,2.33
2022-11-20T14:53:25.729Z,1.70
2022-11-20T14:57:30.775Z,2.78
2022-11-20T15:01:36.098Z,2.50
2022-11-20T15:05:51.433Z,1.90
2022-11-20T15:10:04.936Z,2.40
2022-11-20T15:14:08.957Z,1.48
2022-11-20T15:18:15.965Z,0.93
2022-11-20T15:22:18.609Z,1.48
2022-11-20T15:26:26.363Z,1.40
2022-11-20T15:30:29.165Z,1.30
2022-11-20T15:34:33.224Z,2.03
2022-11-20T15:38:35.916Z,5.15
2022-11-20T15:42:38.632Z,3.53
2022-11-20T15:46:45.426Z,1.15
2022-11-20T15:50:54.889Z,1.60
2022-11-20T15:54:57.560Z,1.17
2022-11-20T15:59:00.246Z,2.28
2022-11-20T16:03:02.978Z,1.63
2022-11-20T16:07:07.150Z,1.42
2022-11-20T16:11:12.911Z,1.42
2022-11-20T16:15:33.405Z,1.58
2022-11-20T16:19:36.077Z,1.23
2022-11-20T16:23:40.101Z,1.85
2022-11-20T16:27:42.788Z,1.48
2022-11-20T16:31:45.462Z,1.52
2022-11-20T16:35:48.222Z,1.48
2022-11-20T16:39:52.264Z,1.55
2022-11-20T16:43:58.506Z,2.63
2022-11-20T16:48:01.270Z,3.67
2022-11-20T16:52:04.034Z,5.18
2022-11-20T16:56:13.528Z,1.95
2022-11-20T17:00:18.174Z,0.95
2022-11-20T17:04:21.401Z,1.10
2022-11-20T17:08:24.440Z,2.22
2022-11-20T17:12:28.685Z,1.10
2022-11-20T17:16:32.607Z,0.70
2022-11-20T17:20:35.325Z,1.00
2022-11-20T17:24:38.056Z,0.75
2022-11-20T17:28:42.468Z,2.03
2022-11-20T17:32:47.080Z,1.40
2022-11-20T17:36:50.294Z,1.00
2022-11-20T17:40:52.993Z,1.50
2022-11-20T17:44:58.649Z,2.03
2022-11-20T17:49:01.883Z,2.63
2022-11-20T17:53:04.674Z,2.60
2022-11-20T17:57:25.648Z,2.65
2022-11-20T18:01:29.712Z,3.22
2022-11-20T18:05:32.527Z,3.75
2022-11-20T18:09:35.263Z,6.78
2022-11-20T18:13:51.949Z,3.40
2022-11-20T18:17:56.056Z,5.05
2022-11-20T18:22:00.083Z,4.95
2022-11-20T18:26:02.892Z,4.72
2022-11-20T18:30:06.564Z,4.72
2022-11-20T18:34:12.966Z,4.45
2022-11-20T18:38:15.671Z,4.53
2022-11-20T18:42:36.053Z,4.00
2022-11-20T18:46:38.798Z,3.15
2022-11-20T18:50:42.841Z,3.30
2022-11-20T18:54:45.532Z,4.05
2022-11-20T18:58:48.512Z,4.60
2022-11-20T19:02:54.681Z,5.50
2022-11-20T19:06:58.775Z,5.60
2022-11-20T19:11:06.985Z,3.38
2022-11-20T19:15:10.182Z,3.65
2022-11-20T19:19:13.397Z,3.00
2022-11-20T19:23:18.713Z,3.78
2022-11-20T19:27:21.500Z,4.65
2022-11-20T19:31:27.212Z,4.18
2022-11-20T19:35:29.941Z,5.82
2022-11-20T19:39:35.509Z,4.68
2022-11-20T19:43:38.468Z,4.90
2022-11-20T19:52:03.856Z,2.65
2022-11-20T19:56:08.469Z,2.35
2022-11-20T20:00:12.399Z,2.30
2022-11-20T20:04:15.270Z,2.55
2022-11-20T20:08:18.233Z,2.42
2022-11-20T20:12:22.336Z,2.72
2022-11-20T20:16:28.111Z,2.92
2022-11-20T20:20:30.888Z,2.17
2022-11-20T20:24:33.616Z,2.35
2022-11-20T20:28:38.734Z,1.85
2022-11-20T20:32:41.591Z,1.75
2022-11-20T20:36:44.299Z,2.10
2022-11-20T20:40:50.582Z,2.40
2022-11-20T20:45:11.229Z,1.15
2022-11-20T20:49:14.059Z,1.50
2022-11-20T20:53:16.752Z,1.45
2022-11-20T20:57:19.416Z,1.73
2022-11-20T21:01:28.319Z,1.65
2022-11-20T21:05:31.216Z,2.13
2022-11-20T21:09:34.009Z,1.38
2022-11-20T21:13:38.136Z,1.75
2022-11-20T21:17:44.213Z,1.60
2022-11-20T21:22:03.183Z,2.20
2022-11-20T21:26:08.585Z,1.90
2022-11-20T21:30:12.487Z,1.55
2022-11-20T21:34:18.112Z,1.23
2022-11-20T21:38:20.884Z,2.58
2022-11-20T21:42:23.642Z,5.00
2022-11-20T21:46:26.408Z,3.53
2022-11-20T21:50:30.456Z,2.38
2022-11-20T21:54:35.703Z,2.08
2022-11-20T21:58:40.146Z,1.25
2022-11-20T22:02:42.813Z,1.52
2022-11-20T22:06:46.823Z,2.15
2022-11-20T22:10:55.831Z,1.92
2022-11-20T22:14:58.574Z,2.58
2022-11-20T22:19:01.468Z,1.63
2022-11-20T22:23:05.657Z,1.75
2022-11-20T22:27:08.391Z,2.13
2022-11-20T22:31:12.471Z,1.30
2022-11-20T22:35:15.402Z,1.45
2022-11-20T22:39:21.886Z,1.40
2022-11-20T22:43:24.611Z,1.25
2022-11-20T22:47:27.316Z,1.05
2022-11-20T22:51:31.719Z,1.30
2022-11-20T22:55:35.767Z,0.98
2022-11-20T22:59:38.478Z,0.73
2022-11-20T23:03:42.645Z,0.80
2022-11-20T23:07:45.390Z,0.70
2022-11-20T23:11:49.419Z,0.90
2022-11-20T23:15:52.187Z,0.90
2022-11-20T23:19:54.849Z,0.93
2022-11-20T23:23:59.162Z,0.90
2022-11-20T23:28:03.242Z,1.20
2022-11-20T23:32:05.976Z,1.00
2022-11-20T23:36:09.548Z,0.90
2022-11-20T23:40:12.834Z,0.85
2022-11-20T23:44:17.021Z,0.98
2022-11-20T23:48:21.433Z,0.80
2022-11-20T23:52:26.297Z,0.55
2022-11-20T23:56:29.024Z,0.75
